sensor_id;sensor_type;location;lat;lon;timestamp;temperature;humidity
16511;DHT22;8368;48.772;8.754;2023-09-30T00:00:26;14.80;99.90
16511;DHT22;8368;48.772;8.754;2023-09-30T00:02:52;14.80;99.90
16511;DHT22;8368;48.772;8.754;2023-09-30T00:05:17;14.80;99.90
16511;DHT22;8368;48.772;8.754;2023-09-30T00:07:45;14.80;99.90
16511;DHT22;8368;48.772;8.754;2023-09-30T00:10:11;14.80;99.90
16511;DHT22;8368;48.772;8.754;2023-09-30T00:12:36;14.80;99.90
16511;DHT22;8368;48.772;8.754;2023-09-30T00:15:02;14.80;99.90
16511;DHT22;8368;48.772;8.754;2023-09-30T00:17:29;14.80;99.90
16511;DHT22;8368;48.772;8.754;2023-09-30T00:19:55;14.80;99.90
16511;DHT22;8368;48.772;8.754;2023-09-30T00:22:21;14.80;99.90
16511;DHT22;8368;48.772;8.754;2023-09-30T00:24:46;14.80;99.90
16511;DHT22;8368;48.772;8.754;2023-09-30T00:27:12;14.80;99.90
16511;DHT22;8368;48.772;8.754;2023-09-30T00:29:38;14.80;99.90
16511;DHT22;8368;48.772;8.754;2023-09-30T00:32:03;14.90;99.90
16511;DHT22;8368;48.772;8.754;2023-09-30T00:34:32;14.90;99.90
16511;DHT22;8368;48.772;8.754;2023-09-30T00:36:58;15.00;99.90
16511;DHT22;8368;48.772;8.754;2023-09-30T00:39:24;15.00;99.90
16511;DHT22;8368;48.772;8.754;2023-09-30T00:41:52;15.00;99.90
16511;DHT22;8368;48.772;8.754;2023-09-30T00:44:18;15.00;99.90
16511;DHT22;8368;48.772;8.754;2023-09-30T00:46:43;15.00;99.90
16511;DHT22;8368;48.772;8.754;2023-09-30T00:49:10;15.00;99.90
16511;DHT22;8368;48.772;8.754;2023-09-30T00:51:38;15.00;99.90
16511;DHT22;8368;48.772;8.754;2023-09-30T00:54:04;15.00;99.90
16511;DHT22;8368;48.772;8.754;2023-09-30T00:56:32;14.90;99.90
16511;DHT22;8368;48.772;8.754;2023-09-30T00:58:58;14.90;99.90
16511;DHT22;8368;48.772;8.754;2023-09-30T01:01:24;14.90;99.90
16511;DHT22;8368;48.772;8.754;2023-09-30T01:03:50;14.90;99.90
16511;DHT22;8368;48.772;8.754;2023-09-30T01:06:15;14.80;99.90
16511;DHT22;8368;48.772;8.754;2023-09-30T01:08:41;14.90;99.90
16511;DHT22;8368;48.772;8.754;2023-09-30T01:11:07;14.80;99.90
16511;DHT22;8368;48.772;8.754;2023-09-30T01:13:37;14.80;99.90
16511;DHT22;8368;48.772;8.754;2023-09-30T01:16:07;14.80;99.90
16511;DHT22;8368;48.772;8.754;2023-09-30T01:18:35;14.80;99.90
16511;DHT22;8368;48.772;8.754;2023-09-30T01:21:03;14.80;99.90
16511;DHT22;8368;48.772;8.754;2023-09-30T01:23:33;14.70;99.90
16511;DHT22;8368;48.772;8.754;2023-09-30T01:26:08;14.80;99.90
16511;DHT22;8368;48.772;8.754;2023-09-30T01:28:34;14.70;99.90
16511;DHT22;8368;48.772;8.754;2023-09-30T01:31:00;14.70;99.90
16511;DHT22;8368;48.772;8.754;2023-09-30T01:33:26;14.70;99.90
16511;DHT22;8368;48.772;8.754;2023-09-30T01:35:52;14.70;99.90
16511;DHT22;8368;48.772;8.754;2023-09-30T01:38:17;14.80;99.90
16511;DHT22;8368;48.772;8.754;2023-09-30T01:40:43;14.70;99.90
16511;DHT22;8368;48.772;8.754;2023-09-30T01:43:09;14.70;99.90
16511;DHT22;8368;48.772;8.754;2023-09-30T01:45:34;14.70;99.90
16511;DHT22;8368;48.772;8.754;2023-09-30T01:48:01;14.70;99.90
16511;DHT22;8368;48.772;8.754;2023-09-30T01:50:27;14.70;99.90
16511;DHT22;8368;48.772;8.754;2023-09-30T01:52:53;14.70;99.90
16511;DHT22;8368;48.772;8.754;2023-09-30T01:55:18;14.70;99.90
16511;DHT22;8368;48.772;8.754;2023-09-30T01:57:44;14.70;99.90
16511;DHT22;8368;48.772;8.754;2023-09-30T02:00:10;14.70;99.90
16511;DHT22;8368;48.772;8.754;2023-09-30T02:02:36;14.70;99.90
16511;DHT22;8368;48.772;8.754;2023-09-30T02:05:02;14.70;99.90
16511;DHT22;8368;48.772;8.754;2023-09-30T02:07:28;14.60;99.90
16511;DHT22;8368;48.772;8.754;2023-09-30T02:09:55;14.60;99.90
16511;DHT22;8368;48.772;8.754;2023-09-30T02:12:20;14.60;99.90
16511;DHT22;8368;48.772;8.754;2023-09-30T02:14:46;14.60;99.90
16511;DHT22;8368;48.772;8.754;2023-09-30T02:17:12;14.60;99.90
16511;DHT22;8368;48.772;8.754;2023-09-30T02:19:39;14.60;99.90
16511;DHT22;8368;48.772;8.754;2023-09-30T02:22:06;14.60;99.90
16511;DHT22;8368;48.772;8.754;2023-09-30T02:24:32;14.70;99.90
16511;DHT22;8368;48.772;8.754;2023-09-30T02:26:58;14.70;99.90
16511;DHT22;8368;48.772;8.754;2023-09-30T02:29:24;14.70;99.90
16511;DHT22;8368;48.772;8.754;2023-09-30T02:31:49;14.60;99.90
16511;DHT22;8368;48.772;8.754;2023-09-30T02:34:15;14.60;99.90
16511;DHT22;8368;48.772;8.754;2023-09-30T02:36:41;14.60;99.90
16511;DHT22;8368;48.772;8.754;2023-09-30T02:39:07;14.60;99.90
16511;DHT22;8368;48.772;8.754;2023-09-30T02:41:34;14.60;99.90
16511;DHT22;8368;48.772;8.754;2023-09-30T02:44:00;14.60;99.90
16511;DHT22;8368;48.772;8.754;2023-09-30T02:46:26;14.60;99.90
16511;DHT22;8368;48.772;8.754;2023-09-30T02:48:53;14.60;99.90
16511;DHT22;8368;48.772;8.754;2023-09-30T02:51:19;14.50;99.90
16511;DHT22;8368;48.772;8.754;2023-09-30T02:53:44;14.50;99.90
16511;DHT22;8368;48.772;8.754;2023-09-30T02:56:10;14.50;99.90
16511;DHT22;8368;48.772;8.754;2023-09-30T02:58:36;14.50;99.90
16511;DHT22;8368;48.772;8.754;2023-09-30T03:01:01;14.50;99.90
16511;DHT22;8368;48.772;8.754;2023-09-30T03:03:27;14.50;99.90
16511;DHT22;8368;48.772;8.754;2023-09-30T03:05:53;14.50;99.90
16511;DHT22;8368;48.772;8.754;2023-09-30T03:08:19;14.50;99.90
16511;DHT22;8368;48.772;8.754;2023-09-30T03:10:45;14.50;99.90
16511;DHT22;8368;48.772;8.754;2023-09-30T03:13:11;14.50;99.90
16511;DHT22;8368;48.772;8.754;2023-09-30T03:15:37;14.50;99.90
16511;DHT22;8368;48.772;8.754;2023-09-30T03:18:04;14.50;99.90
16511;DHT22;8368;48.772;8.754;2023-09-30T03:20:30;14.50;99.90
16511;DHT22;8368;48.772;8.754;2023-09-30T03:22:56;14.50;99.90
16511;DHT22;8368;48.772;8.754;2023-09-30T03:25:22;14.50;99.90
16511;DHT22;8368;48.772;8.754;2023-09-30T03:27:48;14.50;99.90
16511;DHT22;8368;48.772;8.754;2023-09-30T03:30:14;14.50;99.90
16511;DHT22;8368;48.772;8.754;2023-09-30T03:32:41;14.40;99.90
16511;DHT22;8368;48.772;8.754;2023-09-30T03:35:08;14.40;99.90
16511;DHT22;8368;48.772;8.754;2023-09-30T03:37:37;14.40;99.90
16511;DHT22;8368;48.772;8.754;2023-09-30T03:40:03;14.40;99.90
16511;DHT22;8368;48.772;8.754;2023-09-30T03:42:40;14.40;99.90
16511;DHT22;8368;48.772;8.754;2023-09-30T03:45:08;14.30;99.90
16511;DHT22;8368;48.772;8.754;2023-09-30T03:47:37;14.40;99.90
16511;DHT22;8368;48.772;8.754;2023-09-30T03:50:05;14.30;99.90
16511;DHT22;8368;48.772;8.754;2023-09-30T03:52:33;14.30;99.90
16511;DHT22;8368;48.772;8.754;2023-09-30T03:55:00;14.30;99.90
16511;DHT22;8368;48.772;8.754;2023-09-30T03:57:28;14.20;99.90
16511;DHT22;8368;48.772;8.754;2023-09-30T03:59:54;14.20;99.90
16511;DHT22;8368;48.772;8.754;2023-09-30T04:02:20;14.20;99.90
16511;DHT22;8368;48.772;8.754;2023-09-30T04:04:45;14.10;99.90
16511;DHT22;8368;48.772;8.754;2023-09-30T04:07:11;14.10;99.90
16511;DHT22;8368;48.772;8.754;2023-09-30T04:09:38;14.10;99.90
16511;DHT22;8368;48.772;8.754;2023-09-30T04:12:03;14.10;99.90
16511;DHT22;8368;48.772;8.754;2023-09-30T04:14:29;14.20;99.90
16511;DHT22;8368;48.772;8.754;2023-09-30T04:16:54;14.10;99.90
16511;DHT22;8368;48.772;8.754;2023-09-30T04:19:20;14.10;99.90
16511;DHT22;8368;48.772;8.754;2023-09-30T04:21:46;14.10;99.90
16511;DHT22;8368;48.772;8.754;2023-09-30T04:24:12;14.10;99.90
16511;DHT22;8368;48.772;8.754;2023-09-30T04:26:37;14.10;99.90
16511;DHT22;8368;48.772;8.754;2023-09-30T04:29:03;14.10;99.90
16511;DHT22;8368;48.772;8.754;2023-09-30T04:31:30;14.10;99.90
16511;DHT22;8368;48.772;8.754;2023-09-30T04:33:55;14.10;99.90
16511;DHT22;8368;48.772;8.754;2023-09-30T04:36:23;14.10;99.90
16511;DHT22;8368;48.772;8.754;2023-09-30T04:38:49;14.10;99.90
16511;DHT22;8368;48.772;8.754;2023-09-30T04:41:14;14.10;99.90
16511;DHT22;8368;48.772;8.754;2023-09-30T04:43:41;14.10;99.90
16511;DHT22;8368;48.772;8.754;2023-09-30T04:46:08;14.00;99.90
16511;DHT22;8368;48.772;8.754;2023-09-30T04:48:34;14.10;99.90
16511;DHT22;8368;48.772;8.754;2023-09-30T04:51:00;14.00;99.90
16511;DHT22;8368;48.772;8.754;2023-09-30T04:53:25;14.00;99.90
16511;DHT22;8368;48.772;8.754;2023-09-30T04:55:51;14.00;99.90
16511;DHT22;8368;48.772;8.754;2023-09-30T04:58:17;14.00;99.90
16511;DHT22;8368;48.772;8.754;2023-09-30T05:00:43;14.00;99.90
16511;DHT22;8368;48.772;8.754;2023-09-30T05:03:08;14.00;99.90
16511;DHT22;8368;48.772;8.754;2023-09-30T05:05:34;14.00;99.90
16511;DHT22;8368;48.772;8.754;2023-09-30T05:08:00;14.00;99.90
16511;DHT22;8368;48.772;8.754;2023-09-30T05:10:26;14.00;99.90
16511;DHT22;8368;48.772;8.754;2023-09-30T05:12:52;14.10;99.90
16511;DHT22;8368;48.772;8.754;2023-09-30T05:15:20;14.00;99.90
16511;DHT22;8368;48.772;8.754;2023-09-30T05:17:46;14.00;99.90
16511;DHT22;8368;48.772;8.754;2023-09-30T05:20:13;14.00;99.90
16511;DHT22;8368;48.772;8.754;2023-09-30T05:22:39;14.00;99.90
16511;DHT22;8368;48.772;8.754;2023-09-30T05:25:07;14.00;99.90
16511;DHT22;8368;48.772;8.754;2023-09-30T05:27:32;14.00;99.90
16511;DHT22;8368;48.772;8.754;2023-09-30T05:29:58;13.90;99.90
16511;DHT22;8368;48.772;8.754;2023-09-30T05:32:24;13.80;99.90
16511;DHT22;8368;48.772;8.754;2023-09-30T05:34:51;13.80;99.90
16511;DHT22;8368;48.772;8.754;2023-09-30T05:37:18;13.70;99.90
16511;DHT22;8368;48.772;8.754;2023-09-30T05:39:49;13.60;99.90
16511;DHT22;8368;48.772;8.754;2023-09-30T05:42:16;13.60;99.90
16511;DHT22;8368;48.772;8.754;2023-09-30T05:44:41;13.50;99.90
16511;DHT22;8368;48.772;8.754;2023-09-30T05:47:08;13.50;99.90
16511;DHT22;8368;48.772;8.754;2023-09-30T05:49:34;13.50;99.90
16511;DHT22;8368;48.772;8.754;2023-09-30T05:52:02;13.40;99.90
16511;DHT22;8368;48.772;8.754;2023-09-30T05:54:27;13.40;99.90
16511;DHT22;8368;48.772;8.754;2023-09-30T05:56:54;13.40;99.90
16511;DHT22;8368;48.772;8.754;2023-09-30T05:59:20;13.40;99.90
16511;DHT22;8368;48.772;8.754;2023-09-30T06:01:46;13.40;99.90
16511;DHT22;8368;48.772;8.754;2023-09-30T06:04:11;13.40;99.90
16511;DHT22;8368;48.772;8.754;2023-09-30T06:06:37;13.40;99.90
16511;DHT22;8368;48.772;8.754;2023-09-30T06:09:04;13.40;99.90
16511;DHT22;8368;48.772;8.754;2023-09-30T06:11:29;13.30;99.90
16511;DHT22;8368;48.772;8.754;2023-09-30T06:13:55;13.30;99.90
16511;DHT22;8368;48.772;8.754;2023-09-30T06:16:21;13.30;99.90
16511;DHT22;8368;48.772;8.754;2023-09-30T06:18:47;13.30;99.90
16511;DHT22;8368;48.772;8.754;2023-09-30T06:21:14;13.20;99.90
16511;DHT22;8368;48.772;8.754;2023-09-30T06:23:50;13.20;99.90
16511;DHT22;8368;48.772;8.754;2023-09-30T06:26:18;13.30;99.90
16511;DHT22;8368;48.772;8.754;2023-09-30T06:28:44;13.30;99.90
16511;DHT22;8368;48.772;8.754;2023-09-30T06:31:10;13.40;99.90
16511;DHT22;8368;48.772;8.754;2023-09-30T06:33:39;13.50;99.90
16511;DHT22;8368;48.772;8.754;2023-09-30T06:36:09;13.60;99.90
16511;DHT22;8368;48.772;8.754;2023-09-30T06:38:34;13.60;99.90
16511;DHT22;8368;48.772;8.754;2023-09-30T06:41:00;13.70;99.90
16511;DHT22;8368;48.772;8.754;2023-09-30T06:43:27;13.80;99.90
16511;DHT22;8368;48.772;8.754;2023-09-30T06:45:53;13.90;99.90
16511;DHT22;8368;48.772;8.754;2023-09-30T06:48:20;14.00;99.90
16511;DHT22;8368;48.772;8.754;2023-09-30T06:50:47;14.10;99.90
16511;DHT22;8368;48.772;8.754;2023-09-30T06:53:14;14.10;99.90
16511;DHT22;8368;48.772;8.754;2023-09-30T06:55:41;14.20;99.90
16511;DHT22;8368;48.772;8.754;2023-09-30T06:58:07;14.20;99.90
16511;DHT22;8368;48.772;8.754;2023-09-30T07:00:34;14.20;99.90
16511;DHT22;8368;48.772;8.754;2023-09-30T07:03:00;14.20;99.90
16511;DHT22;8368;48.772;8.754;2023-09-30T07:05:27;14.20;99.90
16511;DHT22;8368;48.772;8.754;2023-09-30T07:07:53;14.20;99.90
16511;DHT22;8368;48.772;8.754;2023-09-30T07:10:19;14.20;99.90
16511;DHT22;8368;48.772;8.754;2023-09-30T07:12:44;14.20;99.90
16511;DHT22;8368;48.772;8.754;2023-09-30T07:15:10;14.20;99.90
16511;DHT22;8368;48.772;8.754;2023-09-30T07:17:36;14.20;99.90
16511;DHT22;8368;48.772;8.754;2023-09-30T07:20:03;14.20;99.90
16511;DHT22;8368;48.772;8.754;2023-09-30T07:22:30;14.30;99.90
16511;DHT22;8368;48.772;8.754;2023-09-30T07:24:56;14.30;99.90
16511;DHT22;8368;48.772;8.754;2023-09-30T07:27:23;14.30;99.90
16511;DHT22;8368;48.772;8.754;2023-09-30T07:29:49;14.30;99.90
16511;DHT22;8368;48.772;8.754;2023-09-30T07:32:14;14.30;99.90
16511;DHT22;8368;48.772;8.754;2023-09-30T07:34:40;14.30;99.90
16511;DHT22;8368;48.772;8.754;2023-09-30T07:37:06;14.30;99.90
16511;DHT22;8368;48.772;8.754;2023-09-30T07:39:31;14.40;99.90
16511;DHT22;8368;48.772;8.754;2023-09-30T07:41:57;14.40;99.90
16511;DHT22;8368;48.772;8.754;2023-09-30T07:44:23;14.50;99.90
16511;DHT22;8368;48.772;8.754;2023-09-30T07:46:48;14.60;99.90
16511;DHT22;8368;48.772;8.754;2023-09-30T07:49:14;14.80;99.90
16511;DHT22;8368;48.772;8.754;2023-09-30T07:51:40;15.00;99.90
16511;DHT22;8368;48.772;8.754;2023-09-30T07:54:06;15.10;99.90
16511;DHT22;8368;48.772;8.754;2023-09-30T07:56:31;15.30;99.90
16511;DHT22;8368;48.772;8.754;2023-09-30T07:58:57;15.30;99.90
16511;DHT22;8368;48.772;8.754;2023-09-30T08:01:22;15.30;99.90
16511;DHT22;8368;48.772;8.754;2023-09-30T08:03:48;15.30;99.90
16511;DHT22;8368;48.772;8.754;2023-09-30T08:06:14;15.20;99.90
16511;DHT22;8368;48.772;8.754;2023-09-30T08:08:39;15.10;99.90
16511;DHT22;8368;48.772;8.754;2023-09-30T08:11:06;15.10;99.90
16511;DHT22;8368;48.772;8.754;2023-09-30T08:13:32;15.00;99.90
16511;DHT22;8368;48.772;8.754;2023-09-30T08:16:01;15.00;99.90
16511;DHT22;8368;48.772;8.754;2023-09-30T08:18:27;15.00;99.90
16511;DHT22;8368;48.772;8.754;2023-09-30T08:20:52;15.00;99.90
16511;DHT22;8368;48.772;8.754;2023-09-30T08:23:18;15.00;99.90
16511;DHT22;8368;48.772;8.754;2023-09-30T08:25:44;15.10;99.90
16511;DHT22;8368;48.772;8.754;2023-09-30T08:28:09;15.10;99.90
16511;DHT22;8368;48.772;8.754;2023-09-30T08:30:38;15.20;99.90
16511;DHT22;8368;48.772;8.754;2023-09-30T08:33:04;15.30;99.90
16511;DHT22;8368;48.772;8.754;2023-09-30T08:35:35;15.30;99.90
16511;DHT22;8368;48.772;8.754;2023-09-30T08:38:00;15.40;99.90
16511;DHT22;8368;48.772;8.754;2023-09-30T08:40:27;15.40;99.90
16511;DHT22;8368;48.772;8.754;2023-09-30T08:42:53;15.50;99.90
16511;DHT22;8368;48.772;8.754;2023-09-30T08:45:19;15.60;99.90
16511;DHT22;8368;48.772;8.754;2023-09-30T08:47:45;15.70;99.90
16511;DHT22;8368;48.772;8.754;2023-09-30T08:50:16;15.80;99.90
16511;DHT22;8368;48.772;8.754;2023-09-30T08:52:44;15.90;99.90
16511;DHT22;8368;48.772;8.754;2023-09-30T08:55:11;15.90;99.90
16511;DHT22;8368;48.772;8.754;2023-09-30T08:57:41;16.00;99.90
16511;DHT22;8368;48.772;8.754;2023-09-30T09:00:11;16.10;99.90
16511;DHT22;8368;48.772;8.754;2023-09-30T09:02:37;16.20;99.90
16511;DHT22;8368;48.772;8.754;2023-09-30T09:05:03;16.30;99.90
16511;DHT22;8368;48.772;8.754;2023-09-30T09:07:29;16.30;99.90
16511;DHT22;8368;48.772;8.754;2023-09-30T09:10:06;16.50;99.90
16511;DHT22;8368;48.772;8.754;2023-09-30T09:12:38;16.50;99.90
16511;DHT22;8368;48.772;8.754;2023-09-30T09:15:07;16.60;99.90
16511;DHT22;8368;48.772;8.754;2023-09-30T09:17:44;16.80;99.90
16511;DHT22;8368;48.772;8.754;2023-09-30T09:20:11;16.90;99.90
16511;DHT22;8368;48.772;8.754;2023-09-30T09:22:44;16.90;99.90
16511;DHT22;8368;48.772;8.754;2023-09-30T09:25:10;17.00;99.90
16511;DHT22;8368;48.772;8.754;2023-09-30T09:27:36;17.00;99.90
16511;DHT22;8368;48.772;8.754;2023-09-30T09:30:18;17.10;99.90
16511;DHT22;8368;48.772;8.754;2023-09-30T09:35:24;17.50;99.90
16511;DHT22;8368;48.772;8.754;2023-09-30T09:40:26;17.50;99.90
16511;DHT22;8368;48.772;8.754;2023-09-30T09:42:53;17.70;99.90
16511;DHT22;8368;48.772;8.754;2023-09-30T09:45:24;18.00;99.90
16511;DHT22;8368;48.772;8.754;2023-09-30T09:47:51;18.10;99.90
16511;DHT22;8368;48.772;8.754;2023-09-30T09:50:21;18.20;99.90
16511;DHT22;8368;48.772;8.754;2023-09-30T09:52:51;18.40;99.90
16511;DHT22;8368;48.772;8.754;2023-09-30T09:55:18;18.30;99.90
16511;DHT22;8368;48.772;8.754;2023-09-30T09:57:45;18.40;99.90
16511;DHT22;8368;48.772;8.754;2023-09-30T10:00:16;18.40;99.90
16511;DHT22;8368;48.772;8.754;2023-09-30T10:02:44;18.40;99.90
16511;DHT22;8368;48.772;8.754;2023-09-30T10:05:12;18.30;99.90
16511;DHT22;8368;48.772;8.754;2023-09-30T10:10:18;18.30;99.90
16511;DHT22;8368;48.772;8.754;2023-09-30T10:12:45;18.10;99.90
16511;DHT22;8368;48.772;8.754;2023-09-30T10:20:34;18.10;99.90
16511;DHT22;8368;48.772;8.754;2023-09-30T10:23:20;18.00;99.90
16511;DHT22;8368;48.772;8.754;2023-09-30T10:25:47;17.90;99.90
16511;DHT22;8368;48.772;8.754;2023-09-30T10:31:20;18.10;99.90
16511;DHT22;8368;48.772;8.754;2023-09-30T10:36:36;18.30;99.90
16511;DHT22;8368;48.772;8.754;2023-09-30T10:39:03;18.60;99.90
16511;DHT22;8368;48.772;8.754;2023-09-30T10:46:48;18.90;99.90
16511;DHT22;8368;48.772;8.754;2023-09-30T10:49:15;19.00;99.90
16511;DHT22;8368;48.772;8.754;2023-09-30T10:51:43;18.90;99.90
16511;DHT22;8368;48.772;8.754;2023-09-30T10:54:09;18.90;99.90
16511;DHT22;8368;48.772;8.754;2023-09-30T10:56:36;18.80;99.90
16511;DHT22;8368;48.772;8.754;2023-09-30T10:59:03;18.70;99.90
16511;DHT22;8368;48.772;8.754;2023-09-30T11:01:34;18.60;99.90
16511;DHT22;8368;48.772;8.754;2023-09-30T11:04:01;18.40;99.90
16511;DHT22;8368;48.772;8.754;2023-09-30T11:06:29;18.40;99.90
16511;DHT22;8368;48.772;8.754;2023-09-30T11:08:57;18.30;99.90
16511;DHT22;8368;48.772;8.754;2023-09-30T11:11:39;18.30;99.90
16511;DHT22;8368;48.772;8.754;2023-09-30T11:14:24;18.30;99.90
16511;DHT22;8368;48.772;8.754;2023-09-30T11:16:51;18.30;99.90
16511;DHT22;8368;48.772;8.754;2023-09-30T11:19:17;18.30;99.90
16511;DHT22;8368;48.772;8.754;2023-09-30T11:21:47;18.30;99.90
16511;DHT22;8368;48.772;8.754;2023-09-30T11:24:14;18.30;99.90
16511;DHT22;8368;48.772;8.754;2023-09-30T11:26:39;18.40;99.90
16511;DHT22;8368;48.772;8.754;2023-09-30T11:29:08;18.30;99.90
16511;DHT22;8368;48.772;8.754;2023-09-30T11:31:36;18.40;99.90
16511;DHT22;8368;48.772;8.754;2023-09-30T11:34:02;18.50;99.90
16511;DHT22;8368;48.772;8.754;2023-09-30T11:36:35;18.50;99.90
16511;DHT22;8368;48.772;8.754;2023-09-30T11:39:01;18.50;99.90
16511;DHT22;8368;48.772;8.754;2023-09-30T11:44:05;18.30;99.90
16511;DHT22;8368;48.772;8.754;2023-09-30T11:46:32;18.30;99.90
16511;DHT22;8368;48.772;8.754;2023-09-30T11:49:03;18.30;99.90
16511;DHT22;8368;48.772;8.754;2023-09-30T11:51:34;18.30;99.90
16511;DHT22;8368;48.772;8.754;2023-09-30T11:54:08;18.50;99.90
16511;DHT22;8368;48.772;8.754;2023-09-30T11:56:36;18.70;99.90
16511;DHT22;8368;48.772;8.754;2023-09-30T11:59:02;18.80;99.90
16511;DHT22;8368;48.772;8.754;2023-09-30T12:01:29;19.00;99.90
16511;DHT22;8368;48.772;8.754;2023-09-30T12:03:58;19.20;99.90
16511;DHT22;8368;48.772;8.754;2023-09-30T12:06:23;19.30;99.90
16511;DHT22;8368;48.772;8.754;2023-09-30T12:08:49;19.60;99.90
16511;DHT22;8368;48.772;8.754;2023-09-30T12:11:17;19.70;99.90
16511;DHT22;8368;48.772;8.754;2023-09-30T12:13:43;19.70;99.90
16511;DHT22;8368;48.772;8.754;2023-09-30T12:16:10;19.60;99.90
16511;DHT22;8368;48.772;8.754;2023-09-30T12:18:38;19.70;99.90
16511;DHT22;8368;48.772;8.754;2023-09-30T12:21:03;19.60;99.90
16511;DHT22;8368;48.772;8.754;2023-09-30T12:23:31;19.50;99.90
16511;DHT22;8368;48.772;8.754;2023-09-30T12:25:57;19.40;99.90
16511;DHT22;8368;48.772;8.754;2023-09-30T12:28:23;19.20;99.90
16511;DHT22;8368;48.772;8.754;2023-09-30T12:30:48;19.10;99.90
16511;DHT22;8368;48.772;8.754;2023-09-30T12:33:14;19.00;99.90
16511;DHT22;8368;48.772;8.754;2023-09-30T12:35:39;18.80;99.90
16511;DHT22;8368;48.772;8.754;2023-09-30T12:38:05;18.80;99.90
16511;DHT22;8368;48.772;8.754;2023-09-30T12:40:30;18.80;99.90
16511;DHT22;8368;48.772;8.754;2023-09-30T12:42:56;18.70;99.90
16511;DHT22;8368;48.772;8.754;2023-09-30T12:45:23;18.80;99.90
16511;DHT22;8368;48.772;8.754;2023-09-30T12:47:48;18.80;99.90
16511;DHT22;8368;48.772;8.754;2023-09-30T12:50:17;18.80;99.90
16511;DHT22;8368;48.772;8.754;2023-09-30T12:52:43;18.80;99.90
16511;DHT22;8368;48.772;8.754;2023-09-30T12:55:09;18.80;99.90
16511;DHT22;8368;48.772;8.754;2023-09-30T12:57:35;18.80;99.90
16511;DHT22;8368;48.772;8.754;2023-09-30T13:00:01;18.90;99.90
16511;DHT22;8368;48.772;8.754;2023-09-30T13:02:26;18.90;99.90
16511;DHT22;8368;48.772;8.754;2023-09-30T13:04:52;19.00;99.90
16511;DHT22;8368;48.772;8.754;2023-09-30T13:07:19;19.10;99.90
16511;DHT22;8368;48.772;8.754;2023-09-30T13:09:45;19.10;99.90
16511;DHT22;8368;48.772;8.754;2023-09-30T13:12:11;19.10;99.90
16511;DHT22;8368;48.772;8.754;2023-09-30T13:14:37;19.40;99.90
16511;DHT22;8368;48.772;8.754;2023-09-30T13:17:04;19.50;99.90
16511;DHT22;8368;48.772;8.754;2023-09-30T13:19:29;19.60;99.90
16511;DHT22;8368;48.772;8.754;2023-09-30T13:21:55;19.60;99.90
16511;DHT22;8368;48.772;8.754;2023-09-30T13:24:21;19.60;99.90
16511;DHT22;8368;48.772;8.754;2023-09-30T13:26:47;19.70;99.90
16511;DHT22;8368;48.772;8.754;2023-09-30T13:29:15;19.80;99.90
16511;DHT22;8368;48.772;8.754;2023-09-30T13:31:42;19.80;99.90
16511;DHT22;8368;48.772;8.754;2023-09-30T13:34:08;19.80;99.90
16511;DHT22;8368;48.772;8.754;2023-09-30T13:36:34;19.80;99.90
16511;DHT22;8368;48.772;8.754;2023-09-30T13:38:59;19.90;99.90
16511;DHT22;8368;48.772;8.754;2023-09-30T13:41:26;19.90;99.90
16511;DHT22;8368;48.772;8.754;2023-09-30T13:43:52;20.00;99.90
16511;DHT22;8368;48.772;8.754;2023-09-30T13:46:17;20.20;99.90
16511;DHT22;8368;48.772;8.754;2023-09-30T13:48:43;20.30;99.90
16511;DHT22;8368;48.772;8.754;2023-09-30T13:51:09;20.10;99.90
16511;DHT22;8368;48.772;8.754;2023-09-30T13:53:36;20.20;99.90
16511;DHT22;8368;48.772;8.754;2023-09-30T13:56:02;20.20;99.90
16511;DHT22;8368;48.772;8.754;2023-09-30T13:58:30;19.90;99.90
16511;DHT22;8368;48.772;8.754;2023-09-30T14:00:56;19.50;99.90
16511;DHT22;8368;48.772;8.754;2023-09-30T14:03:23;19.30;99.90
16511;DHT22;8368;48.772;8.754;2023-09-30T14:05:52;19.20;99.90
16511;DHT22;8368;48.772;8.754;2023-09-30T14:08:18;19.00;99.90
16511;DHT22;8368;48.772;8.754;2023-09-30T14:10:44;18.80;99.90
16511;DHT22;8368;48.772;8.754;2023-09-30T14:13:10;18.80;99.90
16511;DHT22;8368;48.772;8.754;2023-09-30T14:15:36;18.80;99.90
16511;DHT22;8368;48.772;8.754;2023-09-30T14:18:03;18.80;99.90
16511;DHT22;8368;48.772;8.754;2023-09-30T14:20:28;18.90;99.90
16511;DHT22;8368;48.772;8.754;2023-09-30T14:22:54;19.10;99.90
16511;DHT22;8368;48.772;8.754;2023-09-30T14:25:23;19.20;99.90
16511;DHT22;8368;48.772;8.754;2023-09-30T14:27:49;19.30;99.90
16511;DHT22;8368;48.772;8.754;2023-09-30T14:30:15;19.30;99.90
16511;DHT22;8368;48.772;8.754;2023-09-30T14:32:41;19.40;99.90
16511;DHT22;8368;48.772;8.754;2023-09-30T14:35:07;19.40;99.90
16511;DHT22;8368;48.772;8.754;2023-09-30T14:37:34;19.30;99.90
16511;DHT22;8368;48.772;8.754;2023-09-30T14:40:00;19.20;99.90
16511;DHT22;8368;48.772;8.754;2023-09-30T14:42:25;19.00;99.90
16511;DHT22;8368;48.772;8.754;2023-09-30T14:44:51;19.00;99.90
16511;DHT22;8368;48.772;8.754;2023-09-30T14:47:16;19.00;99.90
16511;DHT22;8368;48.772;8.754;2023-09-30T14:49:42;19.00;99.90
16511;DHT22;8368;48.772;8.754;2023-09-30T14:52:08;18.90;99.90
16511;DHT22;8368;48.772;8.754;2023-09-30T14:54:35;18.90;99.90
16511;DHT22;8368;48.772;8.754;2023-09-30T14:57:00;18.90;99.90
16511;DHT22;8368;48.772;8.754;2023-09-30T14:59:26;18.80;99.90
16511;DHT22;8368;48.772;8.754;2023-09-30T15:01:52;18.70;99.90
16511;DHT22;8368;48.772;8.754;2023-09-30T15:04:18;18.70;99.90
16511;DHT22;8368;48.772;8.754;2023-09-30T15:06:44;18.60;99.90
16511;DHT22;8368;48.772;8.754;2023-09-30T15:09:12;18.50;99.90
16511;DHT22;8368;48.772;8.754;2023-09-30T15:11:39;18.50;99.90
16511;DHT22;8368;48.772;8.754;2023-09-30T15:14:04;18.50;99.90
16511;DHT22;8368;48.772;8.754;2023-09-30T15:16:30;18.60;99.90
16511;DHT22;8368;48.772;8.754;2023-09-30T15:18:57;18.60;99.90
16511;DHT22;8368;48.772;8.754;2023-09-30T15:21:22;18.60;99.90
16511;DHT22;8368;48.772;8.754;2023-09-30T15:23:49;18.60;99.90
16511;DHT22;8368;48.772;8.754;2023-09-30T15:26:15;18.50;99.90
16511;DHT22;8368;48.772;8.754;2023-09-30T15:28:41;18.50;99.90
16511;DHT22;8368;48.772;8.754;2023-09-30T15:31:07;18.50;99.90
16511;DHT22;8368;48.772;8.754;2023-09-30T15:33:33;18.40;99.90
16511;DHT22;8368;48.772;8.754;2023-09-30T15:35:59;18.30;99.90
16511;DHT22;8368;48.772;8.754;2023-09-30T15:38:25;18.30;99.90
16511;DHT22;8368;48.772;8.754;2023-09-30T15:40:53;18.30;99.90
16511;DHT22;8368;48.772;8.754;2023-09-30T15:43:19;18.40;99.90
16511;DHT22;8368;48.772;8.754;2023-09-30T15:45:45;18.40;99.90
16511;DHT22;8368;48.772;8.754;2023-09-30T15:48:10;18.40;99.90
16511;DHT22;8368;48.772;8.754;2023-09-30T15:50:37;18.50;99.90
16511;DHT22;8368;48.772;8.754;2023-09-30T15:53:03;18.50;99.90
16511;DHT22;8368;48.772;8.754;2023-09-30T15:55:28;18.50;99.90
16511;DHT22;8368;48.772;8.754;2023-09-30T15:57:54;18.40;99.90
16511;DHT22;8368;48.772;8.754;2023-09-30T16:00:19;18.30;99.90
16511;DHT22;8368;48.772;8.754;2023-09-30T16:02:45;18.20;99.90
16511;DHT22;8368;48.772;8.754;2023-09-30T16:05:11;18.10;99.90
16511;DHT22;8368;48.772;8.754;2023-09-30T16:07:36;18.00;99.90